Tachibana — JD2357 — position and weather

sailwx.info

Track history (hours):
 
Tides and Currents Weather Stations Pressure Air Temp Water Temp Dewpoint Dewpoint Depression Visibility Wind Speed Wind Dir Waves Ship Positions

Tachibana

Last reported at 2018-Jun-20 07:09 UTC. Time now 2018-Jun-20 11:29 UTC.
Position N 35°27' E 139°40'.

Length 36 m; draft 3.9 m.

Type: Tug. MMSI: 431000123.

Date/timePositionNaut miles runAvg speedWind from/ knotsBaromVisibWave heightAir tempDewpointWater temp
2018-Jun-20 07:09N 35°27' E 139°40'0 0.0
2018-Jun-20 07:00N 35°27' E 139°40'3 6.6
2018-Jun-20 06:31N 35°24' E 139°42'3 5.3
2018-Jun-20 06:00N 35°24' E 139°39'1 1.2
2018-Jun-20 05:31N 35°24' E 139°38'0 0.0
2018-Jun-20 05:01N 35°24' E 139°38'3 5.8
2018-Jun-20 04:30N 35°24' E 139°42'4 7.2
2018-Jun-20 04:01N 35°27' E 139°40'0 0.1
2018-Jun-20 03:31N 35°27' E 139°40'0 0.0
2018-Jun-20 03:00N 35°27' E 139°40'0 0.0
2018-Jun-20 02:31N 35°27' E 139°40'0 0.0
2018-Jun-20 02:01N 35°27' E 139°40'0 0.0
2018-Jun-20 01:31N 35°27' E 139°40'0 0.0
2018-Jun-20 01:01N 35°27' E 139°40'0 0.0
2018-Jun-20 00:31N 35°27' E 139°40'0 0.0
2018-Jun-20 00:00N 35°27' E 139°40'0 0.0
2018-Jun-19 23:31N 35°27' E 139°40'0 0.0
2018-Jun-19 23:01N 35°27' E 139°40'0 0.0
2018-Jun-19 07:10N 35°27' E 139°40'0 0.0
2018-Jun-19 07:00N 35°27' E 139°40'0 0.0
2018-Jun-19 06:31N 35°27' E 139°40'0 0.0
2018-Jun-19 06:00N 35°27' E 139°40'0 0.0
2018-Jun-19 05:30N 35°27' E 139°40'0 0.0
2018-Jun-19 05:01N 35°27' E 139°40'0 0.0
2018-Jun-19 04:31N 35°27' E 139°40'0 0.0
2018-Jun-19 04:00N 35°27' E 139°40'0 0.0
2018-Jun-19 03:30N 35°27' E 139°40'0 0.0
2018-Jun-19 03:01N 35°27' E 139°40'0 0.0
2018-Jun-19 02:31N 35°27' E 139°40'0 0.0
2018-Jun-19 02:00N 35°27' E 139°40'0 0.0
2018-Jun-19 01:30N 35°27' E 139°40'0 0.8
2018-Jun-19 01:01N 35°27' E 139°40'1 2.6
2018-Jun-19 00:30N 35°28' E 139°41'1 1.8
2018-Jun-19 00:00N 35°28' E 139°42'2 4.1
2018-Jun-18 23:30N 35°26' E 139°44'2 4.1
2018-Jun-18 23:00N 35°27' E 139°42'0 0.0
2018-Jun-18 22:29N 35°27' E 139°42'0 0.0
2018-Jun-18 22:01N 35°27' E 139°42'0 0.0
2018-Jun-18 21:30N 35°27' E 139°42'1 1.3
2018-Jun-18 21:00N 35°28' E 139°41'0 0.2
2018-Jun-18 20:31N 35°27' E 139°41'2 3.2
2018-Jun-18 20:00N 35°27' E 139°40'0 0.1
2018-Jun-18 19:30N 35°27' E 139°40'0 0.0
2018-Jun-18 19:01N 35°27' E 139°40'0 0.0
2018-Jun-18 18:30N 35°27' E 139°40'0 0.0
2018-Jun-18 18:00N 35°27' E 139°40'0 0.0
2018-Jun-18 17:30N 35°27' E 139°40'0 0.0
2018-Jun-18 17:00N 35°27' E 139°40'0 0.0
2018-Jun-18 16:30N 35°27' E 139°40'0 0.0
2018-Jun-18 16:00N 35°27' E 139°40'0 0.0
2018-Jun-18 15:30N 35°27' E 139°40'0 0.0
2018-Jun-18 14:57N 35°27' E 139°40'0 0.0
2018-Jun-18 14:30N 35°27' E 139°40'0 0.0
2018-Jun-18 13:59N 35°27' E 139°40'0 0.0
2018-Jun-18 13:30N 35°27' E 139°40'0 0.0
2018-Jun-18 13:00N 35°27' E 139°40'0 0.0
2018-Jun-18 12:30N 35°27' E 139°40'0 0.0
2018-Jun-18 12:00N 35°27' E 139°40'0 0.0
2018-Jun-18 11:30N 35°27' E 139°40'0 0.0
2018-Jun-18 11:00N 35°27' E 139°40'0 0.0
2018-Jun-18 10:30N 35°27' E 139°40'0 0.0
2018-Jun-18 10:00N 35°27' E 139°40'0 0.0
2018-Jun-18 09:29N 35°27' E 139°40'1 2.1
2018-Jun-18 08:59N 35°27' E 139°41'1 1.6
2018-Jun-18 08:31N 35°28' E 139°42'0 0.3
2018-Jun-18 08:00N 35°28' E 139°41'2 3.3
2018-Jun-18 07:30N 35°27' E 139°40'0 0.0
2018-Jun-18 07:00N 35°27' E 139°40'0 0.0
2018-Jun-18 06:29N 35°27' E 139°40'0 0.0
2018-Jun-18 06:00N 35°27' E 139°40'0 0.0
2018-Jun-18 05:30N 35°27' E 139°40'0 0.0
2018-Jun-18 05:00N 35°27' E 139°40'0 0.0
2018-Jun-18 04:30N 35°27' E 139°40'0 0.0
2018-Jun-18 04:00N 35°27' E 139°40'0 0.0
2018-Jun-18 03:30N 35°27' E 139°40'0 0.0
2018-Jun-18 02:58N 35°27' E 139°40'0 0.0
2018-Jun-18 02:29N 35°27' E 139°40'0 0.0
2018-Jun-18 02:00N 35°27' E 139°40'0 0.0
2018-Jun-18 01:30N 35°27' E 139°40'0 0.0
2018-Jun-18 01:00N 35°27' E 139°40'0 0.0
2018-Jun-18 00:29N 35°27' E 139°40'0 0.0
2018-Jun-18 00:00N 35°27' E 139°40'0 0.0
2018-Jun-17 23:30N 35°27' E 139°40'0 0.0
2018-Jun-17 23:00N 35°27' E 139°40'0 0.0
2018-Jun-17 07:10N 35°27' E 139°40'0 0.0
2018-Jun-17 07:00N 35°27' E 139°40'0 0.0
2018-Jun-17 06:30N 35°27' E 139°40'0 0.0
2018-Jun-17 05:59N 35°27' E 139°40'0 0.0
2018-Jun-17 05:30N 35°27' E 139°40'0 0.0
2018-Jun-17 05:00N 35°27' E 139°40'0 0.0
2018-Jun-17 04:29N 35°27' E 139°40'0 0.0
2018-Jun-17 04:00N 35°27' E 139°40'3 6.1
2018-Jun-17 03:30N 35°25' E 139°42'3 5.6
2018-Jun-17 03:00N 35°24' E 139°39'1 1.2
2018-Jun-17 02:30N 35°24' E 139°38'0 0.0
2018-Jun-17 02:00N 35°24' E 139°38'1 2.9
2018-Jun-17 01:30N 35°23' E 139°40'0 0.0
2018-Jun-17 01:00N 35°23' E 139°40'0 0.0
2018-Jun-17 00:30N 35°23' E 139°40'0 0.0
2018-Jun-17 00:00N 35°23' E 139°40'2 4.9
2018-Jun-16 23:30N 35°25' E 139°42'1 2.8
2018-Jun-16 23:00N 35°26' E 139°41'2 3.5
2018-Jun-16 22:30N 35°25' E 139°43'2 3.1
2018-Jun-16 22:00N 35°27' E 139°41'2 3.1
2018-Jun-16 21:30N 35°27' E 139°40'0 0.0
2018-Jun-16 21:00N 35°27' E 139°40'0 0.0
2018-Jun-16 07:08N 35°27' E 139°40'0 0.0
2018-Jun-16 07:00N 35°27' E 139°40'0 0.0
2018-Jun-16 06:30N 35°27' E 139°40'0 0.0
2018-Jun-16 06:00N 35°27' E 139°40'1 1.8
2018-Jun-16 05:30N 35°27' E 139°41'4 7.0
2018-Jun-16 05:00N 35°29' E 139°44'0 0.0
2018-Jun-16 04:30N 35°29' E 139°44'1 1.7
2018-Jun-16 04:00N 35°28' E 139°45'1 2.5
2018-Jun-16 03:30N 35°27' E 139°46'1 2.2
2018-Jun-16 03:01N 35°28' E 139°45'0 0.0
2018-Jun-16 02:31N 35°28' E 139°45'0 0.0
2018-Jun-16 02:00N 35°28' E 139°45'0 0.0
2018-Jun-16 01:30N 35°28' E 139°45'0 0.0
2018-Jun-16 00:58N 35°28' E 139°45'0 0.0
2018-Jun-16 00:30N 35°28' E 139°45'2 3.9
2018-Jun-16 00:00N 35°30' E 139°47'2 4.2
2018-Jun-15 23:30N 35°30' E 139°45'4 7.5
2018-Jun-15 23:00N 35°28' E 139°41'2 3.2
2018-Jun-15 22:30N 35°27' E 139°40'0 0.0
2018-Jun-15 07:38N 35°27' E 139°40'0 0.0
2018-Jun-15 07:30N 35°27' E 139°40'0 0.3
2018-Jun-15 07:00N 35°27' E 139°40'4 7.0
2018-Jun-15 06:30N 35°29' E 139°43'2 3.6
2018-Jun-15 06:00N 35°30' E 139°45'0 0.1
2018-Jun-15 05:29N 35°30' E 139°45'1 2.1
2018-Jun-15 05:00N 35°31' E 139°46'0 0.5
2018-Jun-15 04:30N 35°30' E 139°46'0 0.0
2018-Jun-15 04:01N 35°30' E 139°46'0 0.0
2018-Jun-15 03:31N 35°30' E 139°46'1 2.8
2018-Jun-15 03:01N 35°30' E 139°48'2 3.6
2018-Jun-15 02:28N 35°29' E 139°45'2 3.9
2018-Jun-15 02:01N 35°28' E 139°44'0 0.0
2018-Jun-15 01:30N 35°28' E 139°44'3 5.8
2018-Jun-15 01:00N 35°27' E 139°41'1 2.0
2018-Jun-15 00:31N 35°26' E 139°42'0 0.4
2018-Jun-15 00:01N 35°26' E 139°42'2 3.7
2018-Jun-14 23:30N 35°27' E 139°40'0 0.0
2018-Jun-14 22:59N 35°27' E 139°40'0 0.0
2018-Jun-14 22:31N 35°27' E 139°40'0 0.0
2018-Jun-14 22:00N 35°27' E 139°40'0 0.0
2018-Jun-14 21:30N 35°27' E 139°40'0 0.0
2018-Jun-14 21:00N 35°27' E 139°40'0 0.0
2018-Jun-14 20:31N 35°27' E 139°40'0 0.0
2018-Jun-14 20:00N 35°27' E 139°40'0 0.0
2018-Jun-14 19:30N 35°27' E 139°40'0 0.0
2018-Jun-14 19:00N 35°27' E 139°40'0 0.0
2018-Jun-14 18:30N 35°27' E 139°40'0 0.0
2018-Jun-14 18:00N 35°27' E 139°40'0 0.0
2018-Jun-14 17:30N 35°27' E 139°40'0 0.0
2018-Jun-14 17:00N 35°27' E 139°40'0 0.0
2018-Jun-14 16:30N 35°27' E 139°40'0 0.0
2018-Jun-14 16:00N 35°27' E 139°40'0 0.0
2018-Jun-14 15:30N 35°27' E 139°40'0 0.0
2018-Jun-14 15:00N 35°27' E 139°40'0 0.0
2018-Jun-14 14:30N 35°27' E 139°40'0 0.0
2018-Jun-14 14:00N 35°27' E 139°40'0 0.0
2018-Jun-14 13:30N 35°27' E 139°40'0 0.0
2018-Jun-14 13:00N 35°27' E 139°40'0 0.0
2018-Jun-14 12:30N 35°27' E 139°40'0 0.0
2018-Jun-14 12:00N 35°27' E 139°40'0 0.0
2018-Jun-14 11:30N 35°27' E 139°40'0 0.0
2018-Jun-14 11:00N 35°27' E 139°40'0 0.0
2018-Jun-14 10:30N 35°27' E 139°40'0 0.0
2018-Jun-14 10:00N 35°27' E 139°40'0 0.0
2018-Jun-14 09:30N 35°27' E 139°40'0 0.0
2018-Jun-14 09:00N 35°27' E 139°40'0 0.0
2018-Jun-14 08:30N 35°27' E 139°40'0 0.0
2018-Jun-14 08:00N 35°27' E 139°40'0 0.0
2018-Jun-14 07:30N 35°27' E 139°40'0 0.0
2018-Jun-14 07:00N 35°27' E 139°40'0 0.0
2018-Jun-14 06:30N 35°27' E 139°40'0 0.0
2018-Jun-14 06:00N 35°27' E 139°40'0 0.0
2018-Jun-14 05:30N 35°27' E 139°40'3 5.5
2018-Jun-14 05:00N 35°29' E 139°42'3 6.3
2018-Jun-14 04:30N 35°31' E 139°45'1 2.6
2018-Jun-14 04:00N 35°30' E 139°44'2 4.0
2018-Jun-14 03:30N 35°29' E 139°42'0 0.9
2018-Jun-14 03:00N 35°28' E 139°42'1 3.0
2018-Jun-14 02:30N 35°29' E 139°43'1 2.0
2018-Jun-14 02:00N 35°30' E 139°44'2 3.6
2018-Jun-14 01:30N 35°29' E 139°42'3 7.0
2018-Jun-14 01:00N 35°29' E 139°47'0 0.1
2018-Jun-14 00:27N 35°29' E 139°46'0 0.0
2018-Jun-14 00:00N 35°29' E 139°46'1 2.4
2018-Jun-13 23:29N 35°31' E 139°46'0 0.7
2018-Jun-13 23:00N 35°31' E 139°46'3 6.2
2018-Jun-13 22:30N 35°29' E 139°43'2 5.0
2018-Jun-13 22:00N 35°27' E 139°44'2 3.6
2018-Jun-13 21:30N 35°27' E 139°42'2 3.3
2018-Jun-13 21:00N 35°27' E 139°40'0 0.0
2018-Jun-13 20:29N 35°27' E 139°40'0 0.0
2018-Jun-13 07:30N 35°27' E 139°40'0 0.0
2018-Jun-13 07:00N 35°27' E 139°40'0 0.0
2018-Jun-13 06:30N 35°27' E 139°40'0 0.0
2018-Jun-13 06:00N 35°27' E 139°40'0 0.0
2018-Jun-13 05:30N 35°27' E 139°40'0 0.0
2018-Jun-13 05:00N 35°27' E 139°40'0 0.0
2018-Jun-13 04:30N 35°27' E 139°40'0 0.0
2018-Jun-13 04:00N 35°27' E 139°40'0 0.0
2018-Jun-13 03:30N 35°27' E 139°40'1 2.2
2018-Jun-13 03:00N 35°27' E 139°41'0 0.3
2018-Jun-13 02:31N 35°27' E 139°41'1 2.1
2018-Jun-13 02:00N 35°27' E 139°40'0 0.0
2018-Jun-13 01:30N 35°27' E 139°40'0 0.0
2018-Jun-13 01:00N 35°27' E 139°40'0 0.0
2018-Jun-13 00:30N 35°27' E 139°40'0 0.0
2018-Jun-13 00:00N 35°27' E 139°40'0 0.0
2018-Jun-12 23:30N 35°27' E 139°40'0 0.0
2018-Jun-12 23:00N 35°27' E 139°40'0 0.0
2018-Jun-12 22:30N 35°27' E 139°40'0 0.0
2018-Jun-12 22:00N 35°27' E 139°40'0 0.0
2018-Jun-12 21:30N 35°27' E 139°40'0 0.0
2018-Jun-12 21:00N 35°27' E 139°40'0 0.0
2018-Jun-12 20:30N 35°27' E 139°40'0 0.0
2018-Jun-12 07:56N 35°27' E 139°40'0 0.0
2018-Jun-12 07:30N 35°27' E 139°40'0 0.0
2018-Jun-12 07:00N 35°27' E 139°40'1 1.4
2018-Jun-12 06:30N 35°28' E 139°40'2 3.7
2018-Jun-12 06:00N 35°28' E 139°42'0 0.0
2018-Jun-12 05:30N 35°28' E 139°42'0 0.0
2018-Jun-12 05:00N 35°28' E 139°42'0 0.0
2018-Jun-12 04:30N 35°28' E 139°42'0 0.0
2018-Jun-12 04:00N 35°28' E 139°42'0 0.0
2018-Jun-12 03:30N 35°28' E 139°42'0 0.0
2018-Jun-12 03:00N 35°28' E 139°42'0 0.0
2018-Jun-12 02:30N 35°28' E 139°42'0 0.0
2018-Jun-12 02:00N 35°28' E 139°42'0 0.0
2018-Jun-12 01:30N 35°28' E 139°42'3 5.9
2018-Jun-12 01:00N 35°30' E 139°44'2 3.6
2018-Jun-12 00:30N 35°31' E 139°46'0 0.2
2018-Jun-12 00:00N 35°31' E 139°46'3 6.1
2018-Jun-11 23:30N 35°29' E 139°43'4 7.3
2018-Jun-11 23:00N 35°27' E 139°40'0 0.0
2018-Jun-11 07:10N 35°27' E 139°40'0 0.0
2018-Jun-11 07:00N 35°27' E 139°40'1 1.5
2018-Jun-11 06:30N 35°28' E 139°40'611.2
2018-Jun-11 06:00N 35°31' E 139°46'0 0.9
2018-Jun-11 05:29N 35°31' E 139°46'0 0.0
2018-Jun-11 05:00N 35°31' E 139°46'0 0.9
2018-Jun-11 04:31N 35°31' E 139°46'2 4.5
2018-Jun-11 04:00N 35°29' E 139°48'2 3.8
2018-Jun-11 03:30N 35°27' E 139°47'0 0.6
2018-Jun-11 03:01N 35°27' E 139°46'3 5.0
2018-Jun-11 02:29N 35°28' E 139°43'0 0.0
2018-Jun-11 01:59N 35°28' E 139°43'0 0.0
2018-Jun-11 01:27N 35°28' E 139°43'0 0.1
2018-Jun-11 00:57N 35°28' E 139°43'1 1.4
2018-Jun-11 00:30N 35°27' E 139°43'1 2.7
2018-Jun-11 00:00N 35°26' E 139°44'3 6.1
2018-Jun-10 23:30N 35°27' E 139°41'1 2.4
2018-Jun-10 23:00N 35°27' E 139°40'0 0.0
2018-Jun-10 22:30N 35°27' E 139°40'0 0.0
2018-Jun-10 21:59N 35°27' E 139°40'0 0.0
2018-Jun-10 21:30N 35°27' E 139°40'0 0.0
2018-Jun-10 21:00N 35°27' E 139°40'0 0.0
2018-Jun-10 20:30N 35°27' E 139°40'0 0.0
2018-Jun-10 19:59N 35°27' E 139°40'0 0.0
2018-Jun-10 07:10N 35°27' E 139°40'  
Track history (hours):
 
Tides and Currents Weather Stations Pressure Air Temp Water Temp Dewpoint Dewpoint Depression Visibility Wind Speed Wind Dir Waves Ship Positions

Tachibana

Last reported at 2018-Jun-20 07:09 UTC. Time now 2018-Jun-20 11:29 UTC.
Position N 35°27' E 139°40'.

Length 36 m; draft 3.9 m.

Type: Tug. MMSI: 431000123.

Date/timePositionNaut miles runAvg speedWind from/ knotsBaromVisibWave heightAir tempDewpointWater temp
2018-Jun-20 07:09N 35°27' E 139°40'0 0.0
2018-Jun-20 07:00N 35°27' E 139°40'3 6.6
2018-Jun-20 06:31N 35°24' E 139°42'3 5.3
2018-Jun-20 06:00N 35°24' E 139°39'1 1.2
2018-Jun-20 05:31N 35°24' E 139°38'0 0.0
2018-Jun-20 05:01N 35°24' E 139°38'3 5.8
2018-Jun-20 04:30N 35°24' E 139°42'4 7.2
2018-Jun-20 04:01N 35°27' E 139°40'0 0.1
2018-Jun-20 03:31N 35°27' E 139°40'0 0.0
2018-Jun-20 03:00N 35°27' E 139°40'0 0.0
2018-Jun-20 02:31N 35°27' E 139°40'0 0.0
2018-Jun-20 02:01N 35°27' E 139°40'0 0.0
2018-Jun-20 01:31N 35°27' E 139°40'0 0.0
2018-Jun-20 01:01N 35°27' E 139°40'0 0.0
2018-Jun-20 00:31N 35°27' E 139°40'0 0.0
2018-Jun-20 00:00N 35°27' E 139°40'0 0.0
2018-Jun-19 23:31N 35°27' E 139°40'0 0.0
2018-Jun-19 23:01N 35°27' E 139°40'0 0.0
2018-Jun-19 07:10N 35°27' E 139°40'0 0.0
2018-Jun-19 07:00N 35°27' E 139°40'0 0.0
2018-Jun-19 06:31N 35°27' E 139°40'0 0.0
2018-Jun-19 06:00N 35°27' E 139°40'0 0.0
2018-Jun-19 05:30N 35°27' E 139°40'0 0.0
2018-Jun-19 05:01N 35°27' E 139°40'0 0.0
2018-Jun-19 04:31N 35°27' E 139°40'0 0.0
2018-Jun-19 04:00N 35°27' E 139°40'0 0.0
2018-Jun-19 03:30N 35°27' E 139°40'0 0.0
2018-Jun-19 03:01N 35°27' E 139°40'0 0.0
2018-Jun-19 02:31N 35°27' E 139°40'0 0.0
2018-Jun-19 02:00N 35°27' E 139°40'0 0.0
2018-Jun-19 01:30N 35°27' E 139°40'0 0.8
2018-Jun-19 01:01N 35°27' E 139°40'1 2.6
2018-Jun-19 00:30N 35°28' E 139°41'1 1.8
2018-Jun-19 00:00N 35°28' E 139°42'2 4.1
2018-Jun-18 23:30N 35°26' E 139°44'2 4.1
2018-Jun-18 23:00N 35°27' E 139°42'0 0.0
2018-Jun-18 22:29N 35°27' E 139°42'0 0.0
2018-Jun-18 22:01N 35°27' E 139°42'0 0.0
2018-Jun-18 21:30N 35°27' E 139°42'1 1.3
2018-Jun-18 21:00N 35°28' E 139°41'0 0.2
2018-Jun-18 20:31N 35°27' E 139°41'2 3.2
2018-Jun-18 20:00N 35°27' E 139°40'0 0.1
2018-Jun-18 19:30N 35°27' E 139°40'0 0.0
2018-Jun-18 19:01N 35°27' E 139°40'0 0.0
2018-Jun-18 18:30N 35°27' E 139°40'0 0.0
2018-Jun-18 18:00N 35°27' E 139°40'0 0.0
2018-Jun-18 17:30N 35°27' E 139°40'0 0.0
2018-Jun-18 17:00N 35°27' E 139°40'0 0.0
2018-Jun-18 16:30N 35°27' E 139°40'0 0.0
2018-Jun-18 16:00N 35°27' E 139°40'0 0.0
2018-Jun-18 15:30N 35°27' E 139°40'0 0.0
2018-Jun-18 14:57N 35°27' E 139°40'0 0.0
2018-Jun-18 14:30N 35°27' E 139°40'0 0.0
2018-Jun-18 13:59N 35°27' E 139°40'0 0.0
2018-Jun-18 13:30N 35°27' E 139°40'0 0.0
2018-Jun-18 13:00N 35°27' E 139°40'0 0.0
2018-Jun-18 12:30N 35°27' E 139°40'0 0.0
2018-Jun-18 12:00N 35°27' E 139°40'0 0.0
2018-Jun-18 11:30N 35°27' E 139°40'0 0.0
2018-Jun-18 11:00N 35°27' E 139°40'0 0.0
2018-Jun-18 10:30N 35°27' E 139°40'0 0.0
2018-Jun-18 10:00N 35°27' E 139°40'0 0.0
2018-Jun-18 09:29N 35°27' E 139°40'1 2.1
2018-Jun-18 08:59N 35°27' E 139°41'1 1.6
2018-Jun-18 08:31N 35°28' E 139°42'0 0.3
2018-Jun-18 08:00N 35°28' E 139°41'2 3.3
2018-Jun-18 07:30N 35°27' E 139°40'0 0.0
2018-Jun-18 07:00N 35°27' E 139°40'0 0.0
2018-Jun-18 06:29N 35°27' E 139°40'0 0.0
2018-Jun-18 06:00N 35°27' E 139°40'0 0.0
2018-Jun-18 05:30N 35°27' E 139°40'0 0.0
2018-Jun-18 05:00N 35°27' E 139°40'0 0.0
2018-Jun-18 04:30N 35°27' E 139°40'0 0.0
2018-Jun-18 04:00N 35°27' E 139°40'0 0.0
2018-Jun-18 03:30N 35°27' E 139°40'0 0.0
2018-Jun-18 02:58N 35°27' E 139°40'0 0.0
2018-Jun-18 02:29N 35°27' E 139°40'0 0.0
2018-Jun-18 02:00N 35°27' E 139°40'0 0.0
2018-Jun-18 01:30N 35°27' E 139°40'0 0.0
2018-Jun-18 01:00N 35°27' E 139°40'0 0.0
2018-Jun-18 00:29N 35°27' E 139°40'0 0.0
2018-Jun-18 00:00N 35°27' E 139°40'0 0.0
2018-Jun-17 23:30N 35°27' E 139°40'0 0.0
2018-Jun-17 23:00N 35°27' E 139°40'0 0.0
2018-Jun-17 07:10N 35°27' E 139°40'0 0.0
2018-Jun-17 07:00N 35°27' E 139°40'0 0.0
2018-Jun-17 06:30N 35°27' E 139°40'0 0.0
2018-Jun-17 05:59N 35°27' E 139°40'0 0.0
2018-Jun-17 05:30N 35°27' E 139°40'0 0.0
2018-Jun-17 05:00N 35°27' E 139°40'0 0.0
2018-Jun-17 04:29N 35°27' E 139°40'0 0.0
2018-Jun-17 04:00N 35°27' E 139°40'3 6.1
2018-Jun-17 03:30N 35°25' E 139°42'3 5.6
2018-Jun-17 03:00N 35°24' E 139°39'1 1.2
2018-Jun-17 02:30N 35°24' E 139°38'0 0.0
2018-Jun-17 02:00N 35°24' E 139°38'1 2.9
2018-Jun-17 01:30N 35°23' E 139°40'0 0.0
2018-Jun-17 01:00N 35°23' E 139°40'0 0.0
2018-Jun-17 00:30N 35°23' E 139°40'0 0.0
2018-Jun-17 00:00N 35°23' E 139°40'2 4.9
2018-Jun-16 23:30N 35°25' E 139°42'1 2.8
2018-Jun-16 23:00N 35°26' E 139°41'2 3.5
2018-Jun-16 22:30N 35°25' E 139°43'2 3.1
2018-Jun-16 22:00N 35°27' E 139°41'2 3.1
2018-Jun-16 21:30N 35°27' E 139°40'0 0.0
2018-Jun-16 21:00N 35°27' E 139°40'0 0.0
2018-Jun-16 07:08N 35°27' E 139°40'0 0.0
2018-Jun-16 07:00N 35°27' E 139°40'0 0.0
2018-Jun-16 06:30N 35°27' E 139°40'0 0.0
2018-Jun-16 06:00N 35°27' E 139°40'1 1.8
2018-Jun-16 05:30N 35°27' E 139°41'4 7.0
2018-Jun-16 05:00N 35°29' E 139°44'0 0.0
2018-Jun-16 04:30N 35°29' E 139°44'1 1.7
2018-Jun-16 04:00N 35°28' E 139°45'1 2.5
2018-Jun-16 03:30N 35°27' E 139°46'1 2.2
2018-Jun-16 03:01N 35°28' E 139°45'0 0.0
2018-Jun-16 02:31N 35°28' E 139°45'0 0.0
2018-Jun-16 02:00N 35°28' E 139°45'0 0.0
2018-Jun-16 01:30N 35°28' E 139°45'0 0.0
2018-Jun-16 00:58N 35°28' E 139°45'0 0.0
2018-Jun-16 00:30N 35°28' E 139°45'2 3.9
2018-Jun-16 00:00N 35°30' E 139°47'2 4.2
2018-Jun-15 23:30N 35°30' E 139°45'4 7.5
2018-Jun-15 23:00N 35°28' E 139°41'2 3.2
2018-Jun-15 22:30N 35°27' E 139°40'0 0.0
2018-Jun-15 07:38N 35°27' E 139°40'0 0.0
2018-Jun-15 07:30N 35°27' E 139°40'0 0.3
2018-Jun-15 07:00N 35°27' E 139°40'4 7.0
2018-Jun-15 06:30N 35°29' E 139°43'2 3.6
2018-Jun-15 06:00N 35°30' E 139°45'0 0.1
2018-Jun-15 05:29N 35°30' E 139°45'1 2.1
2018-Jun-15 05:00N 35°31' E 139°46'0 0.5
2018-Jun-15 04:30N 35°30' E 139°46'0 0.0
2018-Jun-15 04:01N 35°30' E 139°46'0 0.0
2018-Jun-15 03:31N 35°30' E 139°46'1 2.8
2018-Jun-15 03:01N 35°30' E 139°48'2 3.6
2018-Jun-15 02:28N 35°29' E 139°45'2 3.9
2018-Jun-15 02:01N 35°28' E 139°44'0 0.0
2018-Jun-15 01:30N 35°28' E 139°44'3 5.8
2018-Jun-15 01:00N 35°27' E 139°41'1 2.0
2018-Jun-15 00:31N 35°26' E 139°42'0 0.4
2018-Jun-15 00:01N 35°26' E 139°42'2 3.7
2018-Jun-14 23:30N 35°27' E 139°40'0 0.0
2018-Jun-14 22:59N 35°27' E 139°40'0 0.0
2018-Jun-14 22:31N 35°27' E 139°40'0 0.0
2018-Jun-14 22:00N 35°27' E 139°40'0 0.0
2018-Jun-14 21:30N 35°27' E 139°40'0 0.0
2018-Jun-14 21:00N 35°27' E 139°40'0 0.0
2018-Jun-14 20:31N 35°27' E 139°40'0 0.0
2018-Jun-14 20:00N 35°27' E 139°40'0 0.0
2018-Jun-14 19:30N 35°27' E 139°40'0 0.0
2018-Jun-14 19:00N 35°27' E 139°40'0 0.0
2018-Jun-14 18:30N 35°27' E 139°40'0 0.0
2018-Jun-14 18:00N 35°27' E 139°40'0 0.0
2018-Jun-14 17:30N 35°27' E 139°40'0 0.0
2018-Jun-14 17:00N 35°27' E 139°40'0 0.0
2018-Jun-14 16:30N 35°27' E 139°40'0 0.0
2018-Jun-14 16:00N 35°27' E 139°40'0 0.0
2018-Jun-14 15:30N 35°27' E 139°40'0 0.0
2018-Jun-14 15:00N 35°27' E 139°40'0 0.0
2018-Jun-14 14:30N 35°27' E 139°40'0 0.0
2018-Jun-14 14:00N 35°27' E 139°40'0 0.0
2018-Jun-14 13:30N 35°27' E 139°40'0 0.0
2018-Jun-14 13:00N 35°27' E 139°40'0 0.0
2018-Jun-14 12:30N 35°27' E 139°40'0 0.0
2018-Jun-14 12:00N 35°27' E 139°40'0 0.0
2018-Jun-14 11:30N 35°27' E 139°40'0 0.0
2018-Jun-14 11:00N 35°27' E 139°40'0 0.0
2018-Jun-14 10:30N 35°27' E 139°40'0 0.0
2018-Jun-14 10:00N 35°27' E 139°40'0 0.0
2018-Jun-14 09:30N 35°27' E 139°40'0 0.0
2018-Jun-14 09:00N 35°27' E 139°40'0 0.0
2018-Jun-14 08:30N 35°27' E 139°40'0 0.0
2018-Jun-14 08:00N 35°27' E 139°40'0 0.0
2018-Jun-14 07:30N 35°27' E 139°40'0 0.0
2018-Jun-14 07:00N 35°27' E 139°40'0 0.0
2018-Jun-14 06:30N 35°27' E 139°40'0 0.0
2018-Jun-14 06:00N 35°27' E 139°40'0 0.0
2018-Jun-14 05:30N 35°27' E 139°40'3 5.5
2018-Jun-14 05:00N 35°29' E 139°42'3 6.3
2018-Jun-14 04:30N 35°31' E 139°45'1 2.6
2018-Jun-14 04:00N 35°30' E 139°44'2 4.0
2018-Jun-14 03:30N 35°29' E 139°42'0 0.9
2018-Jun-14 03:00N 35°28' E 139°42'1 3.0
2018-Jun-14 02:30N 35°29' E 139°43'1 2.0
2018-Jun-14 02:00N 35°30' E 139°44'2 3.6
2018-Jun-14 01:30N 35°29' E 139°42'3 7.0
2018-Jun-14 01:00N 35°29' E 139°47'0 0.1
2018-Jun-14 00:27N 35°29' E 139°46'0 0.0
2018-Jun-14 00:00N 35°29' E 139°46'1 2.4
2018-Jun-13 23:29N 35°31' E 139°46'0 0.7
2018-Jun-13 23:00N 35°31' E 139°46'3 6.2
2018-Jun-13 22:30N 35°29' E 139°43'2 5.0
2018-Jun-13 22:00N 35°27' E 139°44'2 3.6
2018-Jun-13 21:30N 35°27' E 139°42'2 3.3
2018-Jun-13 21:00N 35°27' E 139°40'0 0.0
2018-Jun-13 20:29N 35°27' E 139°40'0 0.0
2018-Jun-13 07:30N 35°27' E 139°40'0 0.0
2018-Jun-13 07:00N 35°27' E 139°40'0 0.0
2018-Jun-13 06:30N 35°27' E 139°40'0 0.0
2018-Jun-13 06:00N 35°27' E 139°40'0 0.0
2018-Jun-13 05:30N 35°27' E 139°40'0 0.0
2018-Jun-13 05:00N 35°27' E 139°40'0 0.0
2018-Jun-13 04:30N 35°27' E 139°40'0 0.0
2018-Jun-13 04:00N 35°27' E 139°40'0 0.0
2018-Jun-13 03:30N 35°27' E 139°40'1 2.2
2018-Jun-13 03:00N 35°27' E 139°41'0 0.3
2018-Jun-13 02:31N 35°27' E 139°41'1 2.1
2018-Jun-13 02:00N 35°27' E 139°40'0 0.0
2018-Jun-13 01:30N 35°27' E 139°40'0 0.0
2018-Jun-13 01:00N 35°27' E 139°40'0 0.0
2018-Jun-13 00:30N 35°27' E 139°40'0 0.0
2018-Jun-13 00:00N 35°27' E 139°40'0 0.0
2018-Jun-12 23:30N 35°27' E 139°40'0 0.0
2018-Jun-12 23:00N 35°27' E 139°40'0 0.0
2018-Jun-12 22:30N 35°27' E 139°40'0 0.0
2018-Jun-12 22:00N 35°27' E 139°40'0 0.0
2018-Jun-12 21:30N 35°27' E 139°40'0 0.0
2018-Jun-12 21:00N 35°27' E 139°40'0 0.0
2018-Jun-12 20:30N 35°27' E 139°40'0 0.0
2018-Jun-12 07:56N 35°27' E 139°40'0 0.0
2018-Jun-12 07:30N 35°27' E 139°40'0 0.0
2018-Jun-12 07:00N 35°27' E 139°40'1 1.4
2018-Jun-12 06:30N 35°28' E 139°40'2 3.7
2018-Jun-12 06:00N 35°28' E 139°42'0 0.0
2018-Jun-12 05:30N 35°28' E 139°42'0 0.0
2018-Jun-12 05:00N 35°28' E 139°42'0 0.0
2018-Jun-12 04:30N 35°28' E 139°42'0 0.0
2018-Jun-12 04:00N 35°28' E 139°42'0 0.0
2018-Jun-12 03:30N 35°28' E 139°42'0 0.0
2018-Jun-12 03:00N 35°28' E 139°42'0 0.0
2018-Jun-12 02:30N 35°28' E 139°42'0 0.0
2018-Jun-12 02:00N 35°28' E 139°42'0 0.0
2018-Jun-12 01:30N 35°28' E 139°42'3 5.9
2018-Jun-12 01:00N 35°30' E 139°44'2 3.6
2018-Jun-12 00:30N 35°31' E 139°46'0 0.2
2018-Jun-12 00:00N 35°31' E 139°46'3 6.1
2018-Jun-11 23:30N 35°29' E 139°43'4 7.3
2018-Jun-11 23:00N 35°27' E 139°40'0 0.0
2018-Jun-11 07:10N 35°27' E 139°40'0 0.0
2018-Jun-11 07:00N 35°27' E 139°40'1 1.5
2018-Jun-11 06:30N 35°28' E 139°40'611.2
2018-Jun-11 06:00N 35°31' E 139°46'0 0.9
2018-Jun-11 05:29N 35°31' E 139°46'0 0.0
2018-Jun-11 05:00N 35°31' E 139°46'0 0.9
2018-Jun-11 04:31N 35°31' E 139°46'2 4.5
2018-Jun-11 04:00N 35°29' E 139°48'2 3.8
2018-Jun-11 03:30N 35°27' E 139°47'0 0.6
2018-Jun-11 03:01N 35°27' E 139°46'3 5.0
2018-Jun-11 02:29N 35°28' E 139°43'0 0.0
2018-Jun-11 01:59N 35°28' E 139°43'0 0.0
2018-Jun-11 01:27N 35°28' E 139°43'0 0.1
2018-Jun-11 00:57N 35°28' E 139°43'1 1.4
2018-Jun-11 00:30N 35°27' E 139°43'1 2.7
2018-Jun-11 00:00N 35°26' E 139°44'3 6.1
2018-Jun-10 23:30N 35°27' E 139°41'1 2.4
2018-Jun-10 23:00N 35°27' E 139°40'0 0.0
2018-Jun-10 22:30N 35°27' E 139°40'0 0.0
2018-Jun-10 21:59N 35°27' E 139°40'0 0.0
2018-Jun-10 21:30N 35°27' E 139°40'0 0.0
2018-Jun-10 21:00N 35°27' E 139°40'0 0.0
2018-Jun-10 20:30N 35°27' E 139°40'0 0.0
2018-Jun-10 19:59N 35°27' E 139°40'0 0.0
2018-Jun-10 07:10N 35°27' E 139°40'  

Dump ship's entire track history